createdAt,value
2022-09-03T08:41:57.216Z,95460.09
2022-09-03T08:44:29.424Z,95457.69
2022-09-03T08:47:01.278Z,95409.59
2022-09-03T08:49:37.653Z,95443.53
2022-09-03T08:52:15.583Z,95453.16
2022-09-03T08:54:44.855Z,95446.72
2022-09-03T08:57:15.379Z,95456.81
2022-09-03T08:59:43.373Z,95458.78
2022-09-03T09:02:25.630Z,95454.97
2022-09-03T09:05:06.069Z,95460.16
2022-09-03T09:07:46.075Z,95439.59
2022-09-03T09:10:19.519Z,95455.31
2022-09-03T09:13:13.390Z,95453.81
2022-09-03T09:15:50.097Z,95451.38
2022-09-03T09:18:24.869Z,95451.84
2022-09-03T09:20:57.370Z,95343.06
2022-09-03T09:23:31.127Z,95451.59
2022-09-03T09:26:02.368Z,95456.34
2022-09-03T09:28:36.232Z,95446.03
2022-09-03T09:31:07.725Z,95464.50
2022-09-03T09:33:36.380Z,95464.34
2022-09-03T09:36:08.512Z,95461.09
2022-09-03T09:38:38.437Z,95457.41
2022-09-03T09:41:11.343Z,95459.16
2022-09-03T09:43:41.217Z,95454.09
2022-09-03T09:46:14.080Z,95456.06
2022-09-03T09:48:50.559Z,95460.25
2022-09-03T09:51:23.050Z,95440.59
2022-09-03T09:54:02.785Z,95452.53
2022-09-03T09:56:31.481Z,95453.22
2022-09-03T09:59:09.945Z,95435.97
2022-09-03T10:01:40.363Z,95450.66
2022-09-03T10:04:13.050Z,95461.03
2022-09-03T10:06:57.211Z,95459.03
2022-09-03T10:09:30.965Z,95450.72
2022-09-03T10:12:15.329Z,95472.97
2022-09-03T10:14:48.891Z,95457.56
2022-09-03T10:17:24.934Z,95460.00
2022-09-03T10:20:30.941Z,95455.16
2022-09-03T10:23:03.172Z,95451.00
2022-09-03T10:25:40.162Z,95436.44
2022-09-03T10:28:10.604Z,95447.84
2022-09-03T10:31:04.321Z,95447.59
2022-09-03T10:33:39.763Z,95456.31
2022-09-03T10:36:17.271Z,95451.66
2022-09-03T10:38:51.014Z,95455.41
2022-09-03T10:41:31.516Z,95439.38
2022-09-03T10:44:16.474Z,95454.91
2022-09-03T10:47:01.040Z,95407.06
2022-09-03T10:49:41.241Z,95450.19
2022-09-03T10:52:17.158Z,95456.94
2022-09-03T10:54:56.305Z,95452.88
2022-09-03T10:57:37.320Z,95454.88
2022-09-03T11:00:10.368Z,95450.19
2022-09-03T11:03:21.315Z,95453.03
2022-09-03T11:05:57.882Z,95449.81
2022-09-03T11:08:31.529Z,95445.22
2022-09-03T11:11:09.059Z,95450.22
2022-09-03T11:13:43.380Z,95453.25
2022-09-03T11:16:19.022Z,95448.91
2022-09-03T11:18:52.815Z,95447.22
2022-09-03T11:21:25.580Z,95380.66
2022-09-03T11:24:04.308Z,95456.91
2022-09-03T11:26:32.818Z,95449.88
2022-09-03T11:29:07.007Z,95430.06
2022-09-03T11:31:48.059Z,95451.09
2022-09-03T11:34:33.053Z,95450.38
2022-09-03T11:37:23.251Z,95441.53
2022-09-03T11:40:00.884Z,95448.28
2022-09-03T11:42:33.887Z,95451.66
2022-09-03T11:45:15.775Z,95452.22
2022-09-03T11:47:45.269Z,95440.31
2022-09-03T11:50:22.075Z,95434.84
2022-09-03T11:52:53.302Z,95448.06
2022-09-03T11:55:37.574Z,95446.28
2022-09-03T11:58:18.703Z,95455.34
2022-09-03T12:00:46.717Z,95440.31
2022-09-03T12:03:18.056Z,95449.22
2022-09-03T12:06:01.529Z,95439.78
2022-09-03T12:09:01.569Z,95428.44
2022-09-03T12:11:42.682Z,95417.88
2022-09-03T12:14:17.088Z,95404.50
2022-09-03T12:17:00.287Z,95423.78
2022-09-03T12:19:38.350Z,95412.69
2022-09-03T12:22:07.765Z,95418.50
2022-09-03T12:24:38.376Z,95418.66
2022-09-03T12:27:08.062Z,95420.22
2022-09-03T12:29:35.963Z,95420.63
2022-09-03T12:32:09.526Z,95412.56
2022-09-03T12:34:37.672Z,95402.38
2022-09-03T12:40:21.501Z,95384.28
2022-09-03T12:42:50.443Z,95331.63
2022-09-03T12:45:21.826Z,95405.34
2022-09-03T12:47:50.044Z,95412.53
2022-09-03T12:50:20.596Z,95413.91
2022-09-03T12:52:53.520Z,95409.03
2022-09-03T12:55:31.021Z,95404.06
2022-09-03T12:58:07.607Z,95402.69
2022-09-03T13:00:42.926Z,95395.25
2022-09-03T13:03:17.683Z,95392.91
2022-09-03T13:05:49.135Z,95387.16
2022-09-03T13:08:22.716Z,95389.13
2022-09-03T13:10:54.874Z,95372.03
2022-09-03T13:13:25.784Z,95383.03
2022-09-03T13:16:16.445Z,95386.00
2022-09-03T13:18:50.765Z,95376.94
2022-09-03T13:21:33.042Z,95225.84
2022-09-03T13:24:26.001Z,95375.63
2022-09-03T13:27:08.379Z,95342.50
2022-09-03T13:29:44.712Z,95373.69
2022-09-03T13:32:24.605Z,95367.47
2022-09-03T13:34:58.183Z,95329.00
2022-09-03T13:37:33.135Z,95363.44
2022-09-03T13:40:16.063Z,95362.78
2022-09-03T13:42:53.411Z,95364.13
2022-09-03T13:45:30.268Z,95354.75
2022-09-03T13:48:20.742Z,95362.38
2022-09-03T13:50:59.578Z,95360.25
2022-09-03T13:53:38.415Z,95355.84
2022-09-03T13:56:20.458Z,95353.25
2022-09-03T13:58:54.491Z,95358.41
2022-09-03T14:01:27.203Z,95355.81
2022-09-03T14:03:58.223Z,95362.44
2022-09-03T14:06:40.795Z,95364.13
2022-09-03T14:09:16.582Z,95310.22
2022-09-03T14:11:56.061Z,95365.97
2022-09-03T14:14:38.590Z,95360.91
2022-09-03T14:17:13.551Z,95365.53
2022-09-03T14:19:48.203Z,95366.00
2022-09-03T14:22:20.563Z,95365.25
2022-09-03T14:24:53.772Z,95372.72
2022-09-03T14:27:27.764Z,95368.56
2022-09-03T14:30:02.219Z,95357.97
2022-09-03T14:32:42.621Z,95367.41
2022-09-03T14:35:36.496Z,95366.66
2022-09-03T14:38:33.849Z,95367.22
2022-09-03T14:41:07.906Z,95343.47
2022-09-03T14:44:16.771Z,95360.47
2022-09-03T14:46:55.690Z,95360.03
2022-09-03T14:50:05.300Z,95354.06
2022-09-03T14:52:58.903Z,95328.81
2022-09-03T14:55:52.991Z,95378.19
2022-09-03T14:58:38.787Z,95369.25
2022-09-03T15:01:15.194Z,95370.38
2022-09-03T15:04:00.165Z,95374.41
2022-09-03T15:06:41.089Z,95368.03
2022-09-03T15:09:23.435Z,95385.06
2022-09-03T15:11:57.453Z,95365.59
2022-09-03T15:14:36.313Z,95311.00
2022-09-03T15:17:28.065Z,95380.56
2022-09-03T15:20:07.644Z,95380.84
2022-09-03T15:22:54.737Z,95380.81
2022-09-03T15:25:39.646Z,95388.47
2022-09-03T15:28:16.510Z,95386.66
2022-09-03T15:30:57.764Z,95354.06
2022-09-03T15:33:36.076Z,95294.03
2022-09-03T15:36:21.292Z,95390.66
2022-09-03T15:38:53.433Z,95394.03
2022-09-03T15:41:33.044Z,95361.72
2022-09-03T15:44:02.129Z,95397.09
2022-09-03T15:46:48.363Z,95391.50
2022-09-03T15:49:32.426Z,95406.78
2022-09-03T15:52:10.557Z,95416.41
2022-09-03T15:54:44.741Z,95402.41
2022-09-03T15:57:19.831Z,95414.16
2022-09-03T15:59:53.493Z,95421.22
2022-09-03T16:02:27.629Z,95423.31
2022-09-03T16:05:08.772Z,95414.03
2022-09-03T16:07:55.329Z,95430.59
2022-09-03T16:10:33.784Z,95385.69
2022-09-03T16:13:07.900Z,95357.94
2022-09-03T16:15:41.228Z,95415.41
2022-09-03T16:18:22.363Z,95419.31
2022-09-03T16:21:00.081Z,95435.03
2022-09-03T16:23:33.767Z,95429.97
2022-09-03T16:26:07.597Z,95419.03
2022-09-03T16:28:43.498Z,95424.13
2022-09-03T16:31:21.328Z,95420.22
2022-09-03T16:33:59.257Z,95448.84
2022-09-03T16:36:38.820Z,95413.97
2022-09-03T16:39:22.187Z,95448.47
2022-09-03T16:41:59.126Z,95434.38
2022-09-03T16:44:38.869Z,95411.69
2022-09-03T16:47:16.308Z,95448.88
2022-09-03T16:49:57.670Z,95429.69
2022-09-03T16:52:38.904Z,95462.56
2022-09-03T16:55:21.421Z,95465.72
2022-09-03T16:58:09.868Z,95443.00
2022-09-03T17:00:53.988Z,95434.38
2022-09-03T17:04:16.113Z,95461.03
2022-09-03T17:07:06.308Z,95463.41
2022-09-03T17:09:49.448Z,95468.88
2022-09-03T17:12:30.472Z,95471.19
2022-09-03T17:15:35.082Z,95482.59
2022-09-03T17:18:24.748Z,95492.34
2022-09-03T17:21:06.585Z,95489.19
2022-09-03T17:24:04.593Z,95486.06
2022-09-03T17:26:47.485Z,95491.94
2022-09-03T17:29:31.787Z,95494.25
2022-09-03T17:32:12.996Z,95503.97
2022-09-03T17:34:54.370Z,95522.75
2022-09-03T17:37:32.847Z,95495.25
2022-09-03T17:40:23.669Z,95538.34
2022-09-03T17:43:03.714Z,95521.50
2022-09-03T17:45:41.668Z,95522.66
2022-09-03T17:48:31.678Z,95533.63
2022-09-03T17:51:06.076Z,95547.28
2022-09-03T17:53:40.611Z,95582.84
2022-09-03T17:56:19.901Z,95532.72
2022-09-03T17:58:55.160Z,95542.91
2022-09-03T18:01:28.731Z,95542.84
2022-09-03T18:04:04.974Z,95541.25
2022-09-03T18:06:44.142Z,95508.56
2022-09-03T18:09:26.135Z,95545.00
2022-09-03T18:12:05.360Z,95543.41
2022-09-03T18:14:39.093Z,95574.75
2022-09-03T18:17:13.512Z,95572.47
2022-09-03T18:20:08.670Z,95570.84
2022-09-03T18:23:00.044Z,95577.53
2022-09-03T18:25:48.325Z,95581.38
2022-09-03T18:28:38.224Z,95559.78
2022-09-03T18:31:32.348Z,95564.88
2022-09-03T18:34:17.555Z,95562.94
2022-09-03T18:37:03.317Z,95576.25
2022-09-03T18:39:48.981Z,95567.16
2022-09-03T18:42:41.761Z,95574.16
2022-09-03T18:46:07.974Z,95584.72
2022-09-03T18:48:52.799Z,95574.09
2022-09-03T18:51:47.743Z,95569.88
2022-09-03T18:55:06.653Z,95560.88
2022-09-03T18:58:02.753Z,95551.81
2022-09-03T19:00:53.985Z,95549.03
2022-09-03T19:03:59.564Z,95574.25
2022-09-03T19:06:53.840Z,95571.41
2022-09-03T19:09:54.359Z,95591.06
2022-09-03T19:12:58.740Z,95559.81
2022-09-03T19:15:48.868Z,95577.09
2022-09-03T19:18:48.865Z,95543.84
2022-09-03T19:21:41.945Z,95592.50
2022-09-03T19:24:27.261Z,95575.53
2022-09-03T19:27:50.941Z,95595.41
2022-09-03T19:30:35.769Z,95615.38
2022-09-03T19:33:32.035Z,95625.59
2022-09-03T19:36:26.447Z,95618.97
2022-09-03T19:39:25.634Z,95614.66
2022-09-03T19:42:20.401Z,95605.25
2022-09-03T19:45:17.823Z,95618.31
2022-09-03T19:48:16.981Z,95626.84
2022-09-03T19:51:12.945Z,95611.94
2022-09-03T19:53:59.904Z,95636.19
2022-09-03T19:56:47.934Z,95627.38
2022-09-03T19:59:38.670Z,95630.38
2022-09-03T20:02:24.252Z,95628.31
2022-09-03T20:05:16.516Z,95630.06
2022-09-03T20:08:02.743Z,95588.69
2022-09-03T20:10:33.139Z,95634.00
2022-09-03T20:13:08.274Z,95643.97
2022-09-03T20:15:49.490Z,95561.13
2022-09-03T20:18:31.571Z,95617.88
2022-09-03T20:21:12.045Z,95635.09
2022-09-03T20:23:48.529Z,95620.75
2022-09-03T20:26:30.192Z,95640.53
2022-09-03T20:29:12.365Z,95626.00
2022-09-03T20:31:50.526Z,95618.56
2022-09-03T20:34:35.138Z,95639.63
2022-09-03T20:37:14.989Z,95618.31
2022-09-03T20:40:00.114Z,95653.50
2022-09-03T20:42:47.061Z,95649.50
2022-09-03T20:45:19.483Z,95586.44
2022-09-03T20:48:01.598Z,95649.22
2022-09-03T20:50:49.075Z,95646.91
2022-09-03T20:53:32.683Z,95657.41
2022-09-03T20:56:08.636Z,95648.75
2022-09-03T20:58:46.168Z,95660.78
2022-09-03T21:01:23.471Z,95653.59
2022-09-03T21:04:04.365Z,95661.06
2022-09-03T21:06:39.852Z,95662.66
2022-09-03T21:09:18.756Z,95657.50
2022-09-03T21:11:54.152Z,95637.81
2022-09-03T21:14:35.264Z,95637.22
2022-09-03T21:17:21.201Z,95626.16
2022-09-03T21:20:01.853Z,95639.59
2022-09-03T21:22:38.456Z,95622.97
2022-09-03T21:25:09.145Z,95644.31
2022-09-03T21:27:42.737Z,95641.63
2022-09-03T21:30:15.744Z,95644.72
2022-09-03T21:32:49.055Z,95652.19
2022-09-03T21:35:24.003Z,95631.63
2022-09-03T21:37:58.352Z,95647.34
2022-09-03T21:40:31.267Z,95629.56
2022-09-03T21:43:09.495Z,95642.22
2022-09-03T21:45:47.894Z,95645.81
2022-09-03T21:48:21.414Z,95644.75
2022-09-03T21:50:55.072Z,95645.56
2022-09-03T21:53:31.583Z,95641.34
2022-09-03T21:56:14.943Z,95607.50
2022-09-03T21:59:02.416Z,95660.63
2022-09-03T22:01:45.342Z,95651.03
2022-09-03T22:04:13.336Z,95649.50
2022-09-03T22:06:50.963Z,95635.69
2022-09-03T22:09:25.388Z,95648.63
2022-09-03T22:11:59.978Z,95646.25
2022-09-03T22:14:32.405Z,95645.66
2022-09-03T22:17:10.845Z,95648.31
2022-09-03T22:19:40.257Z,95663.56
2022-09-03T22:22:16.788Z,95659.81
2022-09-03T22:24:49.950Z,95661.72
2022-09-03T22:27:27.303Z,95662.19
2022-09-03T22:30:05.090Z,95662.50
2022-09-03T22:32:41.088Z,95664.94
2022-09-03T22:35:33.044Z,95668.41
2022-09-03T22:38:18.119Z,95644.25
2022-09-03T22:40:52.513Z,95618.31
2022-09-03T22:43:40.513Z,95666.19
2022-09-03T22:46:12.894Z,95672.72
2022-09-03T22:48:56.049Z,95656.38
2022-09-03T22:51:25.170Z,95676.50
2022-09-03T22:54:10.720Z,95665.34
2022-09-03T22:56:41.858Z,95666.72
2022-09-03T22:59:16.104Z,95663.69
2022-09-03T23:01:48.676Z,95665.28
2022-09-03T23:04:24.193Z,95659.34
2022-09-03T23:07:01.293Z,95631.25
2022-09-03T23:09:34.704Z,95645.59
2022-09-03T23:12:07.393Z,95655.81
2022-09-03T23:14:48.720Z,95663.56
2022-09-03T23:22:34.283Z,95676.31
2022-09-03T23:25:09.865Z,95679.41
2022-09-03T23:27:43.939Z,95680.13
2022-09-03T23:30:11.982Z,95681.94
2022-09-03T23:32:39.916Z,95681.25
2022-09-03T23:35:16.213Z,95682.84
2022-09-03T23:38:01.120Z,95681.63
2022-09-03T23:40:46.782Z,95665.19
2022-09-03T23:43:47.160Z,95680.78
2022-09-03T23:46:20.770Z,95669.72
2022-09-03T23:49:17.402Z,95689.47
2022-09-03T23:52:04.961Z,95696.34
2022-09-03T23:54:39.522Z,95698.66
2022-09-03T23:57:18.401Z,95696.81
2022-09-03T23:59:59.108Z,95686.50
